createdAt,value
2019-03-19T00:01:48.925Z,60.95
2019-03-19T00:04:19.287Z,61.01
2019-03-19T00:06:50.714Z,61.05
2019-03-19T00:09:21.057Z,61.21
2019-03-19T00:11:51.438Z,62.42
2019-03-19T00:14:22.860Z,61.42
2019-03-19T00:16:53.234Z,61.65
2019-03-19T00:19:23.591Z,61.66
2019-03-19T00:21:53.942Z,62.39
2019-03-19T00:24:24.355Z,62.12
2019-03-19T00:26:54.719Z,62.07
2019-03-19T00:29:25.053Z,62.54
2019-03-19T00:31:55.401Z,62.24
2019-03-19T00:34:25.758Z,62.76
2019-03-19T00:36:56.108Z,63.14
2019-03-19T00:39:26.453Z,62.99
2019-03-19T00:41:56.811Z,63.62
2019-03-19T00:44:27.148Z,63.59
2019-03-19T00:46:57.503Z,62.98
2019-03-19T00:49:27.880Z,62.85
2019-03-19T00:51:58.222Z,62.97
2019-03-19T00:54:28.583Z,62.65
2019-03-19T00:56:58.941Z,62.37
2019-03-19T00:59:29.269Z,62.90
2019-03-19T01:01:59.627Z,62.65
2019-03-19T01:04:30.952Z,62.80
2019-03-19T01:07:01.320Z,62.58
2019-03-19T01:09:31.686Z,62.79
2019-03-19T01:12:02.042Z,62.51
2019-03-19T01:14:32.413Z,62.66
2019-03-19T01:17:02.738Z,63.19
2019-03-19T01:19:33.078Z,63.52
2019-03-19T01:22:03.440Z,64.09
2019-03-19T01:24:33.786Z,63.35
2019-03-19T01:27:04.141Z,63.56
2019-03-19T01:29:35.672Z,63.43
2019-03-19T01:32:06.081Z,63.11
2019-03-19T01:34:36.459Z,62.82
2019-03-19T01:37:06.832Z,62.93
2019-03-19T01:39:37.186Z,62.21
2019-03-19T01:42:07.531Z,62.85
2019-03-19T01:44:37.903Z,62.83
2019-03-19T01:47:08.260Z,63.05
2019-03-19T01:49:38.622Z,63.00
2019-03-19T01:52:09.285Z,62.88
2019-03-19T01:54:39.642Z,63.78
2019-03-19T01:57:10.003Z,63.40
2019-03-19T01:59:40.356Z,63.38
2019-03-19T02:02:10.716Z,62.90
2019-03-19T02:04:41.072Z,62.51
2019-03-19T02:07:11.416Z,62.88
2019-03-19T02:09:41.774Z,63.40
2019-03-19T02:12:12.118Z,63.74
2019-03-19T02:14:42.401Z,63.31
2019-03-19T02:17:12.925Z,64.17
2019-03-19T02:19:43.450Z,64.33
2019-03-19T02:22:13.802Z,64.53
2019-03-19T02:24:44.242Z,65.12
2019-03-19T02:27:14.580Z,65.09
2019-03-19T02:29:44.941Z,65.02
2019-03-19T02:32:15.282Z,65.34
2019-03-19T02:34:45.635Z,64.90
2019-03-19T02:37:17.065Z,64.86
2019-03-19T02:39:47.425Z,64.98
2019-03-19T02:42:17.780Z,66.11
2019-03-19T02:44:48.113Z,65.51
2019-03-19T02:47:18.487Z,65.94
2019-03-19T02:49:48.895Z,66.01
2019-03-19T02:52:19.248Z,65.21
2019-03-19T02:54:49.591Z,64.90
2019-03-19T02:57:19.972Z,65.66
2019-03-19T02:59:50.443Z,65.42
2019-03-19T03:02:20.743Z,65.73
2019-03-19T03:04:51.099Z,65.94
2019-03-19T03:07:21.460Z,65.65
2019-03-19T03:09:51.807Z,66.26
2019-03-19T03:12:22.141Z,65.96
2019-03-19T03:14:52.501Z,65.64
2019-03-19T03:17:22.868Z,65.93
2019-03-19T03:19:53.232Z,65.20
2019-03-19T03:22:23.568Z,65.40
2019-03-19T03:24:53.913Z,64.84
2019-03-19T03:27:24.271Z,64.86
2019-03-19T03:29:54.626Z,65.16
2019-03-19T03:32:24.971Z,64.22
2019-03-19T03:34:55.306Z,64.23
2019-03-19T03:37:25.666Z,63.96
2019-03-19T03:39:56.017Z,64.74
2019-03-19T03:42:26.415Z,65.09
2019-03-19T03:44:56.786Z,64.20
2019-03-19T03:47:27.127Z,64.15
2019-03-19T03:49:57.482Z,65.17
2019-03-19T03:52:27.857Z,64.77
2019-03-19T03:54:58.222Z,64.94
2019-03-19T03:57:28.705Z,65.59
2019-03-19T03:59:59.136Z,63.89
2019-03-19T04:02:29.496Z,63.65
2019-03-19T04:04:59.845Z,63.04
2019-03-19T04:07:30.221Z,63.48
2019-03-19T04:10:00.669Z,63.70
2019-03-19T04:12:31.274Z,63.50
2019-03-19T04:15:01.646Z,63.81
2019-03-19T04:17:32.334Z,63.77
2019-03-19T04:20:05.277Z,63.72
2019-03-19T04:22:35.749Z,63.98
2019-03-19T04:25:07.407Z,64.13
2019-03-19T04:27:40.329Z,63.86
2019-03-19T04:30:20.341Z,63.93
2019-03-19T04:32:50.745Z,64.89
2019-03-19T04:35:21.111Z,64.39
2019-03-19T04:37:51.507Z,64.40
2019-03-19T04:40:21.870Z,64.41
2019-03-19T04:42:52.227Z,64.50
2019-03-19T04:45:22.586Z,64.68
2019-03-19T04:47:53.037Z,64.79
2019-03-19T04:50:23.481Z,65.49
2019-03-19T04:52:53.848Z,65.58
2019-03-19T04:55:24.356Z,65.35
2019-03-19T04:57:54.751Z,65.89
2019-03-19T05:00:25.087Z,66.07
2019-03-19T05:02:55.424Z,65.66
2019-03-19T05:05:25.783Z,65.30
2019-03-19T05:07:56.255Z,65.51
2019-03-19T05:10:26.693Z,65.16
2019-03-19T05:12:57.068Z,65.17
2019-03-19T05:15:27.441Z,65.54
2019-03-19T05:17:57.800Z,65.05
2019-03-19T05:20:28.175Z,65.47
2019-03-19T05:22:58.529Z,66.21
2019-03-19T05:25:28.882Z,65.71
2019-03-19T05:27:59.301Z,64.96
2019-03-19T05:30:29.808Z,64.72
2019-03-19T05:33:00.173Z,64.76
2019-03-19T05:35:30.606Z,65.02
2019-03-19T05:38:00.973Z,64.79
2019-03-19T05:40:31.458Z,65.06
2019-03-19T05:43:01.902Z,65.00
2019-03-19T05:45:32.255Z,64.80
2019-03-19T05:48:02.628Z,64.96
2019-03-19T05:50:33.018Z,64.85
2019-03-19T05:53:04.532Z,64.91
2019-03-19T05:55:34.926Z,64.87
2019-03-19T05:58:05.264Z,64.08
2019-03-19T06:00:37.420Z,63.52
2019-03-19T06:03:07.909Z,63.65
2019-03-19T06:05:39.135Z,63.72
2019-03-19T06:08:10.182Z,64.06
2019-03-19T06:10:40.788Z,63.68
2019-03-19T06:13:11.579Z,63.32
2019-03-19T06:15:42.524Z,63.35
2019-03-19T06:18:16.155Z,63.75
2019-03-19T06:20:46.520Z,63.94
2019-03-19T06:23:16.981Z,64.45
2019-03-19T06:25:47.742Z,63.77
2019-03-19T06:28:18.121Z,63.36
2019-03-19T06:30:48.481Z,63.56
2019-03-19T06:33:18.855Z,63.61
2019-03-19T06:35:49.322Z,63.72
2019-03-19T06:38:20.519Z,64.39
2019-03-19T06:40:51.272Z,64.03
2019-03-19T06:43:22.760Z,63.96
2019-03-19T06:45:53.129Z,63.44
2019-03-19T06:48:23.491Z,63.83
2019-03-19T06:50:53.881Z,63.17
2019-03-19T06:53:24.298Z,63.13
2019-03-19T06:55:54.679Z,62.99
2019-03-19T06:58:25.048Z,62.88
2019-03-19T07:00:55.424Z,62.84
2019-03-19T07:03:25.837Z,62.82
2019-03-19T07:05:56.216Z,62.27
2019-03-19T07:08:26.640Z,62.49
2019-03-19T07:10:56.991Z,62.73
2019-03-19T07:13:27.493Z,62.15
2019-03-19T07:16:00.352Z,62.81
2019-03-19T07:18:30.712Z,63.06
2019-03-19T07:21:01.174Z,62.00
2019-03-19T07:23:31.550Z,62.18
2019-03-19T07:26:01.900Z,61.49
2019-03-19T07:28:32.267Z,61.14
2019-03-19T07:31:02.705Z,60.27
2019-03-19T07:33:33.075Z,60.73
2019-03-19T07:36:03.449Z,60.65
2019-03-19T07:38:33.808Z,60.80
2019-03-19T07:41:04.937Z,59.97
2019-03-19T07:43:35.306Z,59.93
2019-03-19T07:46:05.662Z,59.39
2019-03-19T07:48:36.046Z,59.05
2019-03-19T07:51:06.408Z,58.90
2019-03-19T07:53:36.771Z,58.47
2019-03-19T07:56:07.132Z,58.67
2019-03-19T07:58:45.223Z,57.80
2019-03-19T08:01:09.532Z,58.19
2019-03-19T08:03:39.910Z,58.18
2019-03-19T08:06:10.310Z,58.06
2019-03-19T08:08:40.670Z,59.08
2019-03-19T08:11:13.084Z,59.23
2019-03-19T08:13:43.159Z,59.56
2019-03-19T08:16:13.555Z,59.00
2019-03-19T08:18:43.939Z,58.43
2019-03-19T08:21:14.303Z,59.24
2019-03-19T08:23:44.663Z,59.80
2019-03-19T08:26:16.650Z,60.04
2019-03-19T08:28:55.049Z,61.32
2019-03-19T08:31:19.136Z,61.06
2019-03-19T08:33:49.502Z,61.46
2019-03-19T08:36:38.320Z,61.50
2019-03-19T08:39:08.680Z,62.47
2019-03-19T08:41:39.056Z,62.35
2019-03-19T08:44:09.483Z,62.54
2019-03-19T08:46:39.863Z,60.98
2019-03-19T08:49:10.348Z,60.31
2019-03-19T08:51:40.703Z,60.26
2019-03-19T08:54:11.057Z,59.11
2019-03-19T08:56:42.855Z,59.04
2019-03-19T08:59:13.236Z,58.70
2019-03-19T09:01:43.603Z,58.80
2019-03-19T09:04:13.971Z,58.84
2019-03-19T09:06:44.343Z,58.55
2019-03-19T09:09:14.728Z,58.60
2019-03-19T09:11:45.103Z,58.78
2019-03-19T09:14:15.485Z,58.76
2019-03-19T09:16:45.848Z,58.32
2019-03-19T09:19:16.216Z,58.05
2019-03-19T09:21:46.577Z,57.94
2019-03-19T09:24:16.911Z,57.25
2019-03-19T09:26:47.455Z,57.66
2019-03-19T09:29:17.889Z,57.59
2019-03-19T09:31:48.263Z,58.00
2019-03-19T09:34:18.608Z,58.31
2019-03-19T09:36:56.950Z,57.87
2019-03-19T09:39:21.152Z,57.80
2019-03-19T09:41:51.540Z,58.20
2019-03-19T09:44:21.936Z,57.34
2019-03-19T09:46:52.284Z,57.35
2019-03-19T09:49:23.712Z,56.36
2019-03-19T09:51:54.063Z,57.47
2019-03-19T09:54:24.417Z,55.81
2019-03-19T09:56:55.293Z,56.42
2019-03-19T09:59:27.345Z,54.56
2019-03-19T10:01:57.890Z,54.13
2019-03-19T10:04:28.243Z,54.01
2019-03-19T10:07:06.013Z,53.27
2019-03-19T10:09:30.686Z,53.25
2019-03-19T10:12:01.043Z,52.23
2019-03-19T10:14:31.411Z,52.78
2019-03-19T10:17:02.901Z,53.18
2019-03-19T10:19:33.279Z,54.14
2019-03-19T10:22:03.634Z,54.13
2019-03-19T10:24:34.052Z,54.99
2019-03-19T10:27:04.412Z,54.68
2019-03-19T10:29:38.585Z,53.67
2019-03-19T10:32:06.827Z,52.33
2019-03-19T10:34:37.208Z,51.22
2019-03-19T10:37:07.727Z,51.64
2019-03-19T10:39:38.087Z,52.89
2019-03-19T10:42:08.456Z,52.61
2019-03-19T10:44:38.930Z,51.42
2019-03-19T10:47:09.286Z,51.50
2019-03-19T10:49:39.645Z,51.50
2019-03-19T10:52:10.008Z,51.68
2019-03-19T10:54:40.398Z,51.20
2019-03-19T10:57:10.757Z,51.82
2019-03-19T10:59:48.797Z,51.47
2019-03-19T11:02:13.214Z,52.06
2019-03-19T11:04:43.577Z,51.60
2019-03-19T11:07:15.256Z,51.40
2019-03-19T11:09:45.818Z,50.96
2019-03-19T11:12:16.189Z,51.17
2019-03-19T11:14:46.556Z,50.19
2019-03-19T11:17:17.896Z,49.40
2019-03-19T11:19:48.292Z,49.07
2019-03-19T11:22:18.661Z,50.91
2019-03-19T11:24:49.293Z,50.50
2019-03-19T11:27:19.654Z,51.44
2019-03-19T11:29:59.550Z,51.47
2019-03-19T11:32:22.099Z,50.10
2019-03-19T11:34:52.445Z,49.25
2019-03-19T11:37:22.805Z,50.65
2019-03-19T11:39:53.170Z,53.63
2019-03-19T11:42:23.528Z,56.19
2019-03-19T11:44:53.888Z,56.92
2019-03-19T11:47:24.253Z,58.31
2019-03-19T11:49:54.633Z,58.00
2019-03-19T11:52:25.569Z,56.69
2019-03-19T11:54:55.925Z,56.80
2019-03-19T11:57:26.278Z,55.24
2019-03-19T11:59:56.626Z,54.04
2019-03-19T12:02:26.988Z,54.46
2019-03-19T12:04:57.363Z,55.15
2019-03-19T12:07:27.717Z,53.80
2019-03-19T12:09:59.053Z,53.44
2019-03-19T12:12:29.401Z,54.13
2019-03-19T12:14:59.759Z,53.67
2019-03-19T12:17:30.215Z,53.64
2019-03-19T12:20:00.557Z,52.56
2019-03-19T12:22:30.900Z,52.00
2019-03-19T12:25:01.243Z,51.09
2019-03-19T12:27:31.618Z,51.84
2019-03-19T12:30:01.968Z,50.76
2019-03-19T12:32:33.309Z,49.80
2019-03-19T12:35:04.134Z,51.10
2019-03-19T12:37:34.501Z,50.87
2019-03-19T12:40:11.084Z,51.45
2019-03-19T12:42:41.431Z,51.55
2019-03-19T12:45:19.641Z,51.39
2019-03-19T12:47:50.142Z,51.32
2019-03-19T12:50:21.760Z,51.76
2019-03-19T12:52:52.131Z,51.96
2019-03-19T12:55:22.520Z,51.52
2019-03-19T12:57:52.899Z,51.70
2019-03-19T13:00:33.597Z,50.64
2019-03-19T13:02:56.452Z,51.47
2019-03-19T13:05:26.807Z,51.35
2019-03-19T13:07:57.198Z,50.23
2019-03-19T13:10:27.584Z,51.02
2019-03-19T13:12:57.946Z,50.88
2019-03-19T13:15:28.431Z,51.12
2019-03-19T13:17:58.801Z,52.24
2019-03-19T13:20:29.180Z,50.78
2019-03-19T13:22:59.533Z,49.96
2019-03-19T13:25:29.899Z,50.67
2019-03-19T13:28:00.266Z,50.63
2019-03-19T13:30:31.884Z,51.74
2019-03-19T13:33:02.301Z,52.40
2019-03-19T13:35:33.610Z,52.24
2019-03-19T13:38:03.955Z,53.01
2019-03-19T13:40:34.310Z,53.51
2019-03-19T13:43:04.752Z,52.85
2019-03-19T13:45:35.104Z,51.44
2019-03-19T13:48:05.478Z,52.06
2019-03-19T13:50:35.868Z,50.97
2019-03-19T13:53:06.803Z,50.38
2019-03-19T13:55:37.165Z,49.95
2019-03-19T13:58:07.571Z,50.84
2019-03-19T14:00:37.933Z,50.11
2019-03-19T14:03:08.581Z,50.63
2019-03-19T14:05:38.969Z,49.39
2019-03-19T14:08:09.472Z,50.21
2019-03-19T14:10:39.843Z,48.77
2019-03-19T14:13:10.220Z,48.81
2019-03-19T14:15:40.598Z,48.67
2019-03-19T14:18:10.971Z,49.28
2019-03-19T14:20:41.343Z,47.83
2019-03-19T14:23:11.769Z,48.62
2019-03-19T14:25:42.226Z,48.00
2019-03-19T14:28:13.282Z,49.07
2019-03-19T14:30:44.040Z,48.73
2019-03-19T14:33:14.401Z,48.18
2019-03-19T14:35:45.615Z,48.50
2019-03-19T14:38:15.978Z,48.75
2019-03-19T14:40:47.968Z,48.56
2019-03-19T14:43:18.380Z,48.83
2019-03-19T14:45:48.853Z,49.48
2019-03-19T14:48:19.209Z,48.88
2019-03-19T14:50:49.602Z,49.65
2019-03-19T14:53:20.020Z,49.13
2019-03-19T14:55:50.374Z,49.81
2019-03-19T14:58:23.448Z,49.38
2019-03-19T15:00:53.846Z,49.42
2019-03-19T15:03:24.197Z,48.79
2019-03-19T15:05:54.581Z,47.71
2019-03-19T15:08:25.623Z,47.67
2019-03-19T15:10:56.156Z,48.82
2019-03-19T15:13:26.634Z,48.69
2019-03-19T15:15:56.989Z,49.20
2019-03-19T15:18:27.377Z,48.26
2019-03-19T15:20:58.342Z,49.10
2019-03-19T15:23:28.789Z,48.57
2019-03-19T15:25:59.453Z,48.86
2019-03-19T15:28:30.929Z,48.77
2019-03-19T15:31:01.307Z,49.90
2019-03-19T15:33:31.686Z,47.74
2019-03-19T15:36:02.101Z,47.93
2019-03-19T15:38:32.452Z,47.68
2019-03-19T15:41:02.772Z,48.73
2019-03-19T15:43:33.194Z,49.85
2019-03-19T15:46:03.663Z,49.36
2019-03-19T15:48:34.035Z,49.40
2019-03-19T15:51:04.558Z,49.83
2019-03-19T15:53:34.952Z,49.93
2019-03-19T15:56:05.304Z,50.36
2019-03-19T15:58:35.686Z,50.71
2019-03-19T16:01:06.042Z,51.04
2019-03-19T16:03:36.468Z,51.61
2019-03-19T16:06:07.210Z,51.45
2019-03-19T16:08:38.342Z,51.23
2019-03-19T16:11:08.910Z,51.40
2019-03-19T16:13:39.271Z,51.26
2019-03-19T16:16:10.164Z,50.82
2019-03-19T16:18:40.560Z,50.96
2019-03-19T16:21:12.565Z,51.57
2019-03-19T16:23:42.934Z,51.60
2019-03-19T16:26:13.344Z,51.32
2019-03-19T16:28:44.702Z,51.04
2019-03-19T16:31:15.248Z,51.39
2019-03-19T16:33:47.100Z,50.45
2019-03-19T16:36:18.495Z,50.41
2019-03-19T16:38:49.369Z,50.22
2019-03-19T16:41:19.766Z,49.91
2019-03-19T16:43:52.532Z,50.09
2019-03-19T16:46:22.871Z,50.67
2019-03-19T16:48:53.210Z,50.36
2019-03-19T16:51:23.571Z,50.64
2019-03-19T16:53:53.968Z,51.78
2019-03-19T16:56:24.399Z,52.31
2019-03-19T16:58:55.304Z,52.50
2019-03-19T17:01:25.968Z,52.31
2019-03-19T17:03:56.423Z,51.97
2019-03-19T17:06:26.772Z,52.63
2019-03-19T17:08:57.680Z,53.11
2019-03-19T17:11:28.182Z,53.44
2019-03-19T17:13:59.047Z,53.79
2019-03-19T17:16:29.656Z,54.06
2019-03-19T17:19:03.272Z,53.51
2019-03-19T17:21:34.425Z,53.96
2019-03-19T17:24:05.030Z,53.85
2019-03-19T17:26:35.614Z,55.02
2019-03-19T17:29:06.709Z,55.81
2019-03-19T17:31:39.164Z,55.11
2019-03-19T17:34:12.236Z,55.51
2019-03-19T17:36:43.162Z,56.39
2019-03-19T17:39:13.556Z,56.41
2019-03-19T17:41:44.536Z,56.71
2019-03-19T17:44:15.310Z,56.75
2019-03-19T17:46:46.357Z,56.98
2019-03-19T17:49:18.494Z,56.97
2019-03-19T17:51:48.896Z,57.64
2019-03-19T17:54:19.653Z,57.31
2019-03-19T17:56:51.646Z,57.69
2019-03-19T17:59:22.014Z,57.40
2019-03-19T18:01:53.265Z,57.89
2019-03-19T18:04:23.648Z,57.80
2019-03-19T18:06:54.621Z,57.28
2019-03-19T18:09:25.380Z,57.11
2019-03-19T18:11:56.359Z,57.29
2019-03-19T18:14:27.766Z,56.82
2019-03-19T18:16:58.299Z,56.68
2019-03-19T18:19:28.690Z,56.71
2019-03-19T18:21:59.581Z,56.33
2019-03-19T18:24:29.943Z,55.90
2019-03-19T18:27:02.224Z,55.52
2019-03-19T18:29:32.579Z,56.00
2019-03-19T18:32:02.998Z,56.34
2019-03-19T18:34:33.409Z,56.12
2019-03-19T18:37:05.422Z,56.02
2019-03-19T18:39:36.911Z,55.98
2019-03-19T18:42:08.467Z,55.99
2019-03-19T18:44:40.287Z,55.89
2019-03-19T18:47:12.488Z,56.35
2019-03-19T18:49:43.123Z,56.05
2019-03-19T18:52:16.231Z,55.73
2019-03-19T18:54:46.950Z,55.51
2019-03-19T18:57:17.331Z,55.72
2019-03-19T18:59:48.049Z,55.88
2019-03-19T19:02:18.644Z,56.17
2019-03-19T19:04:49.431Z,57.35
2019-03-19T19:07:20.011Z,56.93
2019-03-19T19:09:50.385Z,55.86
2019-03-19T19:12:21.899Z,55.39
2019-03-19T19:14:53.973Z,51.38
2019-03-19T19:17:25.873Z,51.05
2019-03-19T19:19:56.449Z,52.87
2019-03-19T19:22:28.568Z,54.23
2019-03-19T19:24:59.342Z,54.74
2019-03-19T19:27:31.406Z,55.75
2019-03-19T19:30:01.916Z,56.24
2019-03-19T19:32:32.879Z,56.08
2019-03-19T19:35:03.648Z,54.92
2019-03-19T19:37:34.456Z,55.13
2019-03-19T19:40:16.429Z,54.93
2019-03-19T19:42:48.273Z,55.66
2019-03-19T19:45:20.795Z,55.64
2019-03-19T19:47:52.941Z,55.39
2019-03-19T19:50:23.944Z,55.73
2019-03-19T19:52:56.031Z,55.34
2019-03-19T19:55:27.119Z,55.47
2019-03-19T19:57:58.065Z,54.84
2019-03-19T20:00:28.830Z,55.53
2019-03-19T20:02:59.611Z,55.50
2019-03-19T20:05:30.228Z,55.17
2019-03-19T20:08:00.808Z,57.63
2019-03-19T20:10:31.375Z,57.56
2019-03-19T20:13:02.352Z,57.63
2019-03-19T20:15:33.648Z,57.28
2019-03-19T20:18:04.911Z,56.44
2019-03-19T20:20:35.515Z,56.55
2019-03-19T20:23:05.903Z,56.46
2019-03-19T20:25:36.283Z,55.94
2019-03-19T20:28:06.711Z,55.53
2019-03-19T20:30:37.084Z,55.73
2019-03-19T20:33:07.453Z,55.58
2019-03-19T20:35:37.845Z,55.30
2019-03-19T20:38:08.250Z,55.26
2019-03-19T20:40:39.014Z,55.25
2019-03-19T20:43:09.426Z,55.05
2019-03-19T20:45:40.169Z,55.21
2019-03-19T20:48:10.547Z,55.79
2019-03-19T20:50:41.157Z,55.77
2019-03-19T20:53:11.603Z,55.54
2019-03-19T20:55:42.054Z,56.53
2019-03-19T20:58:14.193Z,56.25
2019-03-19T21:00:45.999Z,56.49
2019-03-19T21:03:16.413Z,55.84
2019-03-19T21:05:46.826Z,55.61
2019-03-19T21:08:17.217Z,55.76
2019-03-19T21:10:47.774Z,55.89
2019-03-19T21:13:20.001Z,55.53
2019-03-19T21:15:50.429Z,55.82
2019-03-19T21:18:21.153Z,55.28
2019-03-19T21:20:53.165Z,54.43
2019-03-19T21:23:25.319Z,55.70
2019-03-19T21:25:56.246Z,55.68
2019-03-19T21:28:26.767Z,55.69
2019-03-19T21:30:58.845Z,55.96
2019-03-19T21:33:29.258Z,56.58
2019-03-19T21:35:59.677Z,56.71
2019-03-19T21:38:30.055Z,56.54
2019-03-19T21:41:02.060Z,56.22
2019-03-19T21:43:32.436Z,56.03
2019-03-19T21:46:02.859Z,56.02
2019-03-19T21:48:33.228Z,55.57
2019-03-19T21:51:03.740Z,58.22
2019-03-19T21:53:34.184Z,57.40
2019-03-19T21:56:04.558Z,58.45
2019-03-19T21:58:35.882Z,57.80
2019-03-19T22:01:06.247Z,56.40
2019-03-19T22:03:36.648Z,56.21
2019-03-19T22:06:06.985Z,55.75
2019-03-19T22:08:37.359Z,55.40
2019-03-19T22:11:07.935Z,55.16
2019-03-19T22:13:38.363Z,55.49
2019-03-19T22:16:10.808Z,55.54
2019-03-19T22:18:41.200Z,55.97
2019-03-19T22:21:11.578Z,56.29
2019-03-19T22:23:44.303Z,56.01
2019-03-19T22:26:14.666Z,55.16
2019-03-19T22:28:45.031Z,55.04
2019-03-19T22:31:15.420Z,54.96
2019-03-19T22:33:45.797Z,55.33
2019-03-19T22:36:16.212Z,55.62
2019-03-19T22:38:46.579Z,55.33
2019-03-19T22:41:16.970Z,55.26
2019-03-19T22:43:47.458Z,54.76
2019-03-19T22:46:22.063Z,54.78
2019-03-19T22:48:49.951Z,54.96
2019-03-19T22:51:20.376Z,54.74
2019-03-19T22:53:50.759Z,54.63
2019-03-19T22:56:21.256Z,54.64
2019-03-19T22:58:51.642Z,54.40
2019-03-19T23:01:22.054Z,54.48
2019-03-19T23:03:52.448Z,54.44
2019-03-19T23:06:22.824Z,54.53
2019-03-19T23:08:53.216Z,54.89
2019-03-19T23:11:23.616Z,54.61
2019-03-19T23:13:54.248Z,54.57
2019-03-19T23:16:24.655Z,54.32
2019-03-19T23:18:55.035Z,53.80
2019-03-19T23:21:25.417Z,54.05
2019-03-19T23:23:55.794Z,54.37
2019-03-19T23:26:26.265Z,54.48
2019-03-19T23:28:56.652Z,54.36
2019-03-19T23:31:27.029Z,54.88
2019-03-19T23:33:57.391Z,55.50
2019-03-19T23:36:27.765Z,54.96
2019-03-19T23:38:58.145Z,55.15
2019-03-19T23:41:28.510Z,55.01
2019-03-19T23:43:59.036Z,54.74
2019-03-19T23:46:29.399Z,54.84
2019-03-19T23:48:59.846Z,54.46
2019-03-19T23:51:30.189Z,54.45
2019-03-19T23:54:00.540Z,54.01
2019-03-19T23:56:31.879Z,53.86
2019-03-19T23:59:02.256Z,54.11
